Time;durP1;ratioP1;P1;durP2;ratioP2;P2;SDS_P1;SDS_P2;PMS_P1;PMS_P2;Temp;Humidity;BMP_temperature;BMP_pressure;BME280_temperature;BME280_humidity;BME280_pressure;Samples;Min_cycle;Max_cycle;Signal;HPM_P1;HPM_P2
2023/07/15 00:00:12;;;;;;;;;;;;;;;27.71;62.40;99607.41;342630;28;1218;-78
2023/07/15 00:00:23;;;;;;;;;;;;;;;27.67;62.50;99603.38;345422;28;1347;-78
2023/07/15 00:00:33;;;;;;;;;;;;;;;27.68;62.76;99604.22;346487;28;1391;-78
2023/07/15 00:00:44;;;;;;;;;;;;;;;27.71;62.54;99606.56;348605;28;1208;-78
2023/07/15 00:01:02;;;;;;;;;;;;;;;27.75;62.38;99605.19;348689;28;819;-78
2023/07/15 00:01:31;;;;;;;;;;;;;;;27.72;62.18;99605.56;345988;28;1382;-78
2023/07/15 00:01:42;;;;;;;;;;;;;;;27.74;62.05;99603.50;339230;29;1372;-78
2023/07/15 00:01:52;;;;;;;;;;;;;;;27.75;61.97;99611.41;337278;29;1606;-78
2023/07/15 00:02:02;;;;;;;;;;;;;;;27.75;62.48;99607.88;336630;29;1530;-78
2023/07/15 00:02:12;;;;;;;;;;;;;;;27.75;62.31;99605.19;335587;29;917;-78
2023/07/15 00:02:23;;;;;;;;;;;;;;;27.76;62.07;99610.38;339542;29;1448;-78
2023/07/15 00:02:33;;;;;;;;;;;;;;;27.76;62.02;99606.84;341356;28;1668;-78
2023/07/15 00:02:43;;;;;;;;;;;;;;;27.75;61.99;99606.00;339341;29;994;-78
2023/07/15 00:02:54;;;;;;;;;;;;;;;27.78;62.01;99607.53;337901;29;1446;-78
2023/07/15 00:03:05;;;;;;;;;;;;;;;27.79;62.19;99611.88;337155;29;1260;-77
2023/07/15 00:03:15;;;;;;;;;;;;;;;27.81;62.24;99610.69;336714;29;908;-78
2023/07/15 00:03:25;;;;;;;;;;;;;;;27.82;61.75;99611.53;337962;29;1639;-78
2023/07/15 00:03:36;;;;;;;;;;;;;;;27.81;62.07;99615.25;339287;29;1043;-78
2023/07/15 00:03:47;;;;;;;;;;;;;;;27.79;61.90;99611.88;338878;29;1464;-77
2023/07/15 00:03:57;;;;;;;;;;;;;;;27.78;62.02;99607.53;338048;29;864;-77
2023/07/15 00:04:11;;;;;;;;;;;;;;;27.77;61.85;99608.53;338294;29;1849;-78
2023/07/15 00:04:28;;;;;;;;;;;;;;;27.75;62.21;99611.41;334928;29;1849;-79
2023/07/15 00:04:39;;;;;;;;;;;;;;;27.78;61.75;99611.06;335998;29;2119;-79
2023/07/15 00:04:49;;;;;;;;;;;;;;;27.79;62.19;99607.34;332035;29;2089;-78
2023/07/15 00:05:01;;;;;;;;;;;;;;;27.78;62.18;99610.22;332912;29;1225;-79
2023/07/15 00:05:20;;;;;;;;;;;;;;;27.75;62.06;99606.00;329051;29;2610;-78
2023/07/15 00:05:35;;;;;;;;;;;;;;;27.74;62.49;99606.19;325386;30;3653;-78
2023/07/15 00:05:45;;;;;;;;;;;;;;;27.69;62.44;99611.28;330324;29;1349;-78
2023/07/15 00:05:57;;;;;;;;;;;;;;;27.72;62.28;99610.94;324338;30;1237;-79
2023/07/15 00:06:07;;;;;;;;;;;;;;;27.74;62.52;99608.88;327921;29;2067;-78
2023/07/15 00:06:18;;;;;;;;;;;;;;;27.76;62.44;99604.16;330231;29;2261;-78
2023/07/15 00:06:28;;;;;;;;;;;;;;;27.76;62.52;99609.53;331720;29;1203;-78
2023/07/15 00:06:38;;;;;;;;;;;;;;;27.76;62.44;99607.69;329563;29;2178;-78
2023/07/15 00:06:48;;;;;;;;;;;;;;;27.80;62.02;99613.56;330155;29;2550;-78
2023/07/15 00:06:59;;;;;;;;;;;;;;;27.79;62.23;99611.88;330470;29;823;-78
2023/07/15 00:07:09;;;;;;;;;;;;;;;27.80;62.08;99609.03;329787;29;2848;-78
2023/07/15 00:07:21;;;;;;;;;;;;;;;27.85;62.17;99607.66;329398;29;1884;-78
2023/07/15 00:07:31;;;;;;;;;;;;;;;27.88;61.68;99604.63;329149;29;1250;-78
2023/07/15 00:07:42;;;;;;;;;;;;;;;27.90;61.89;99608.81;330379;29;942;-78
2023/07/15 00:07:52;;;;;;;;;;;;;;;27.95;61.45;99611.84;324088;30;2079;-78
2023/07/15 00:08:03;;;;;;;;;;;;;;;27.97;61.58;99607.13;321360;30;2338;-78
2023/07/15 00:08:13;;;;;;;;;;;;;;;28.00;61.21;99603.25;323104;30;1224;-78
2023/07/15 00:08:23;;;;;;;;;;;;;;;28.01;61.23;99611.16;324383;30;2684;-78
2023/07/15 00:08:33;;;;;;;;;;;;;;;27.99;61.23;99606.94;322362;30;3319;-78
2023/07/15 00:08:44;;;;;;;;;;;;;;;28.01;61.56;99611.16;319230;30;1229;-78
2023/07/15 00:08:55;;;;;;;;;;;;;;;27.96;61.93;99601.91;316949;31;3176;-78
2023/07/15 00:09:05;;;;;;;;;;;;;;;27.91;62.34;99604.28;318146;30;2944;-78
2023/07/15 00:09:16;;;;;;;;;;;;;;;27.89;62.09;99607.16;319079;30;3477;-78
2023/07/15 00:09:29;;;;;;;;;;;;;;;27.91;62.03;99604.28;318592;30;1396;-78
2023/07/15 00:09:40;;;;;;;;;;;;;;;27.88;62.27;99610.84;314936;31;2588;-78
2023/07/15 00:09:51;;;;;;;;;;;;;;;27.88;61.97;99605.47;317320;30;2172;-78
2023/07/15 00:10:01;;;;;;;;;;;;;;;27.86;62.56;99610.19;316657;30;2718;-78
2023/07/15 00:10:11;;;;;;;;;;;;;;;27.80;62.55;99608.19;315035;31;814;-78
2023/07/15 00:10:22;;;;;;;;;;;;;;;27.80;62.51;99602.81;310877;31;3186;-79
2023/07/15 00:10:33;;;;;;;;;;;;;;;27.79;62.48;99606.50;308754;31;4447;-78
2023/07/15 00:10:43;;;;;;;;;;;;;;;27.78;62.51;99605.66;309596;31;1352;-78
2023/07/15 00:10:54;;;;;;;;;;;;;;;27.80;62.77;99603.66;307273;31;4835;-78
2023/07/15 00:11:04;;;;;;;;;;;;;;;27.80;62.24;99602.81;305730;32;4527;-78
2023/07/15 00:11:17;;;;;;;;;;;;;;;27.81;62.80;99605.31;306191;32;1216;-78
2023/07/15 00:11:29;;;;;;;;;;;;;;;27.84;62.56;99604.13;306272;32;898;-78
2023/07/15 00:11:43;;;;;;;;;;;;;;;27.86;62.28;99607.50;306460;32;4322;-80
2023/07/15 00:11:53;;;;;;;;;;;;;;;27.88;62.23;99600.09;304421;32;3241;-78
2023/07/15 00:12:03;;;;;;;;;;;;;;;27.84;62.64;99604.13;304540;31;2864;-78
2023/07/15 00:12:15;;;;;;;;;;;;;;;27.82;62.63;99598.09;306004;32;1400;-78
2023/07/15 00:12:25;;;;;;;;;;;;;;;27.85;62.78;99603.13;304118;32;1310;-77
2023/07/15 00:12:36;;;;;;;;;;;;;;;27.86;62.75;99607.50;302454;32;5060;-77
2023/07/15 00:12:46;;;;;;;;;;;;;;;27.82;62.50;99611.53;302295;32;5982;-77
2023/07/15 00:12:56;;;;;;;;;;;;;;;27.83;62.81;99608.69;305256;32;974;-77
2023/07/15 00:13:10;;;;;;;;;;;;;;;27.87;62.34;99608.34;301079;32;5805;-77
2023/07/15 00:13:21;;;;;;;;;;;;;;;27.91;62.73;99606.97;297862;32;6436;-77
2023/07/15 00:13:31;;;;;;;;;;;;;;;27.93;62.69;99603.09;294435;33;5670;-78
2023/07/15 00:13:41;;;;;;;;;;;;;;;27.97;62.67;99604.44;291971;33;1131;-78
2023/07/15 00:13:52;;;;;;;;;;;;;;;27.99;62.13;99602.41;290305;33;6063;-78
2023/07/15 00:14:03;;;;;;;;;;;;;;;28.01;62.00;99605.75;288256;33;4509;-78
2023/07/15 00:14:18;;;;;;;;;;;;;;;28.03;61.93;99603.75;289102;34;1247;-78
2023/07/15 00:14:28;;;;;;;;;;;;;;;28.07;61.92;99605.06;288314;34;3736;-78
2023/07/15 00:14:39;;;;;;;;;;;;;;;28.08;61.70;99601.38;283921;34;7218;-78
2023/07/15 00:14:50;;;;;;;;;;;;;;;28.10;62.09;99604.72;282404;34;7470;-78
2023/07/15 00:15:00;;;;;;;;;;;;;;;28.10;61.64;99604.72;285331;34;824;-78
2023/07/15 00:15:11;;;;;;;;;;;;;;;28.12;61.98;99602.69;283426;34;9044;-78
2023/07/15 00:16:53;;;;;;;;;;;;;;;28.07;62.34;99605.06;2491918;27;20365;-78
2023/07/15 00:17:03;;;;;;;;;;;;;;;28.06;62.36;99603.38;350926;28;1111;-78
2023/07/15 00:17:13;;;;;;;;;;;;;;;28.06;62.66;99603.38;348870;28;788;-78
2023/07/15 00:17:24;;;;;;;;;;;;;;;28.06;62.55;99606.09;346048;28;1338;-79
2023/07/15 00:17:34;;;;;;;;;;;;;;;28.06;62.68;99608.78;346124;28;1102;-78
2023/07/15 00:17:44;;;;;;;;;;;;;;;28.06;63.02;99606.09;347373;28;1307;-78
2023/07/15 00:17:54;;;;;;;;;;;;;;;28.07;62.67;99610.44;349850;28;1229;-78
2023/07/15 00:18:05;;;;;;;;;;;;;;;28.06;62.66;99606.09;350107;28;1322;-79
2023/07/15 00:18:16;;;;;;;;;;;;;;;28.06;63.17;99600.69;346717;28;1341;-79
2023/07/15 00:18:26;;;;;;;;;;;;;;;28.08;63.00;99601.38;347541;28;1223;-79
2023/07/15 00:18:36;;;;;;;;;;;;;;;28.09;63.17;99607.59;346011;28;1188;-78
2023/07/15 00:18:47;;;;;;;;;;;;;;;28.09;62.65;99605.72;345849;28;1220;-79
2023/07/15 00:18:58;;;;;;;;;;;;;;;28.10;63.05;99610.09;347341;28;879;-79
2023/07/15 00:19:08;;;;;;;;;;;;;;;28.11;63.10;99603.72;345973;28;1346;-79
2023/07/15 00:19:18;;;;;;;;;;;;;;;28.13;62.67;99603.53;348240;28;1215;-79
2023/07/15 00:19:29;;;;;;;;;;;;;;;28.14;63.01;99603.34;350124;28;1341;-79
2023/07/15 00:19:39;;;;;;;;;;;;;;;28.16;62.75;99609.38;348806;28;924;-79
2023/07/15 00:19:50;;;;;;;;;;;;;;;28.16;62.51;99609.38;344677;28;1370;-80
2023/07/15 00:20:00;;;;;;;;;;;;;;;28.19;62.52;99601.97;344742;28;1399;-79
2023/07/15 00:20:14;;;;;;;;;;;;;;;28.19;62.38;99604.66;344802;28;864;-79
2023/07/15 00:20:25;;;;;;;;;;;;;;;28.22;62.90;99613.25;344787;28;898;-79
2023/07/15 00:20:35;;;;;;;;;;;;;;;28.23;62.74;99614.09;344407;28;1348;-79
2023/07/15 00:20:46;;;;;;;;;;;;;;;28.23;62.89;99609.53;343670;28;1427;-78
2023/07/15 00:20:57;;;;;;;;;;;;;;;28.24;62.95;99613.06;346093;28;951;-78
2023/07/15 00:21:15;;;;;;;;;;;;;;;28.21;62.47;99610.69;344674;28;1446;-79
2023/07/15 00:21:26;;;;;;;;;;;;;;;28.17;62.58;99613.75;343310;28;966;-79
2023/07/15 00:21:36;;;;;;;;;;;;;;;28.14;63.10;99611.44;343221;28;1194;-79
2023/07/15 00:21:47;;;;;;;;;;;;;;;28.11;63.38;99606.41;344778;28;786;-79
2023/07/15 00:21:57;;;;;;;;;;;;;;;28.10;63.23;99610.09;343298;28;900;-79
2023/07/15 00:22:09;;;;;;;;;;;;;;;28.12;63.27;99610.78;339265;28;1259;-78
2023/07/15 00:22:19;;;;;;;;;;;;;;;28.10;63.32;99615.47;342112;28;765;-78
2023/07/15 00:22:29;;;;;;;;;;;;;;;28.10;63.19;99606.56;343619;28;912;-78
2023/07/15 00:22:45;;;;;;;;;;;;;;;28.09;63.14;99613.81;344725;28;855;-79
2023/07/15 00:22:55;;;;;;;;;;;;;;;28.11;63.47;99614.47;347327;28;1247;-78
2023/07/15 00:23:12;;;;;;;;;;;;;;;28.13;63.95;99612.44;347057;28;1155;-78
2023/07/15 00:23:23;;;;;;;;;;;;;;;28.08;63.82;99614.81;340715;29;1205;-78
2023/07/15 00:23:34;;;;;;;;;;;;;;;28.06;64.42;99614.16;341411;28;1340;-78
2023/07/15 00:23:46;;;;;;;;;;;;;;;28.05;63.99;99612.47;341153;28;3571;-78
2023/07/15 00:23:56;;;;;;;;;;;;;;;28.05;64.59;99614.31;339064;29;5069;-78
2023/07/15 00:24:07;;;;;;;;;;;;;;;28.06;64.04;99616.84;344284;28;3253;-78
2023/07/15 00:24:17;;;;;;;;;;;;;;;28.06;64.48;99607.94;343475;28;2968;-78
2023/07/15 00:24:27;;;;;;;;;;;;;;;28.07;64.31;99618.53;343218;28;813;-78
2023/07/15 00:24:37;;;;;;;;;;;;;;;28.09;64.55;99613.81;340528;28;1388;-78
2023/07/15 00:24:48;;;;;;;;;;;;;;;28.09;64.17;99613.81;342462;28;1675;-78
2023/07/15 00:24:58;;;;;;;;;;;;;;;28.10;64.33;99612.78;340803;28;1375;-78
2023/07/15 00:25:11;;;;;;;;;;;;;;;28.09;64.37;99612.97;340797;29;817;-78
2023/07/15 00:25:21;;;;;;;;;;;;;;;28.08;64.32;99604.06;337952;29;1062;-78
2023/07/15 00:25:34;;;;;;;;;;;;;;;28.09;64.08;99612.97;337911;29;1691;-78
2023/07/15 00:25:44;;;;;;;;;;;;;;;28.10;64.69;99612.78;338888;28;1373;-78
2023/07/15 00:25:54;;;;;;;;;;;;;;;28.10;64.42;99610.09;339329;29;1631;-78
2023/07/15 00:26:05;;;;;;;;;;;;;;;28.12;64.51;99612.63;339068;29;1303;-78
2023/07/15 00:26:15;;;;;;;;;;;;;;;28.13;64.21;99609.75;339153;29;1388;-78
2023/07/15 00:26:29;;;;;;;;;;;;;;;28.14;64.22;99611.44;338758;29;1452;-78
2023/07/15 00:26:41;;;;;;;;;;;;;;;28.14;64.27;99616.81;336769;29;822;-78
2023/07/15 00:26:52;;;;;;;;;;;;;;;28.16;64.35;99609.38;337920;29;913;-81
2023/07/15 00:27:04;;;;;;;;;;;;;;;28.18;64.70;99609.19;336571;29;1703;-79
2023/07/15 00:27:14;;;;;;;;;;;;;;;28.19;64.13;99610.03;336647;28;1746;-78
2023/07/15 00:27:25;;;;;;;;;;;;;;;28.20;64.70;99609.03;338087;29;1163;-79
2023/07/15 00:27:35;;;;;;;;;;;;;;;28.20;64.31;99614.41;341325;28;1920;-79
2023/07/15 00:27:47;;;;;;;;;;;;;;;28.21;64.67;99621.47;335458;29;2048;-79
2023/07/15 00:27:57;;;;;;;;;;;;;;;28.21;64.45;99610.69;334144;29;1363;-79
2023/07/15 00:28:07;;;;;;;;;;;;;;;28.21;64.39;99616.09;335722;29;1358;-79
2023/07/15 00:28:17;;;;;;;;;;;;;;;28.21;64.73;99613.41;334237;29;949;-79
2023/07/15 00:28:28;;;;;;;;;;;;;;;28.21;64.71;99610.69;332740;29;1017;-79
2023/07/15 00:28:38;;;;;;;;;;;;;;;28.21;64.87;99616.09;330441;29;1221;-79
2023/07/15 00:28:50;;;;;;;;;;;;;;;28.20;64.32;99611.72;333155;29;1065;-79
2023/07/15 00:29:00;;;;;;;;;;;;;;;28.19;64.98;99612.72;332905;29;1613;-79
2023/07/15 00:29:11;;;;;;;;;;;;;;;28.18;64.65;99611.88;331662;29;1320;-79
2023/07/15 00:29:22;;;;;;;;;;;;;;;28.12;64.93;99608.06;327646;30;1230;-79
2023/07/15 00:29:32;;;;;;;;;;;;;;;28.04;65.05;99616.19;326935;29;2614;-79
2023/07/15 00:29:43;;;;;;;;;;;;;;;28.01;65.55;99616.53;327259;30;2405;-79
2023/07/15 00:29:53;;;;;;;;;;;;;;;27.96;65.11;99618.06;324074;30;1223;-79
2023/07/15 00:30:04;;;;;;;;;;;;;;;27.93;65.40;99616.56;323869;30;2724;-79
2023/07/15 00:30:14;;;;;;;;;;;;;;;27.87;65.41;99619.94;325747;30;1803;-79
2023/07/15 00:30:25;;;;;;;;;;;;;;;27.86;65.47;99623.63;325468;30;1212;-79
2023/07/15 00:30:35;;;;;;;;;;;;;;;27.77;65.83;99620.13;325201;30;1330;-79
2023/07/15 00:30:45;;;;;;;;;;;;;;;27.69;65.09;99611.28;323717;30;1106;-78
2023/07/15 00:30:56;;;;;;;;;;;;;;;27.71;65.59;99617.31;326896;30;803;-77
2023/07/15 00:31:13;;;;;;;;;;;;;;;27.74;65.60;99619.63;324938;30;2228;-77
2023/07/15 00:31:23;;;;;;;;;;;;;;;27.80;65.57;99614.41;323083;30;812;-77
2023/07/15 00:31:34;;;;;;;;;;;;;;;27.84;65.53;99614.91;320279;30;3528;-79
2023/07/15 00:31:45;;;;;;;;;;;;;;;27.80;65.37;99618.94;316891;31;4513;-78
2023/07/15 00:31:57;;;;;;;;;;;;;;;27.77;64.91;99622.81;312865;31;1336;-79
2023/07/15 00:32:11;;;;;;;;;;;;;;;27.73;65.40;99617.97;312796;31;1511;-79
2023/07/15 00:32:22;;;;;;;;;;;;;;;27.71;65.65;99620.00;312601;31;1383;-78
2023/07/15 00:32:32;;;;;;;;;;;;;;;27.68;65.42;99623.03;313072;31;2089;-78
2023/07/15 00:32:43;;;;;;;;;;;;;;;27.65;65.51;99620.69;312231;31;1408;-78
2023/07/15 00:32:54;;;;;;;;;;;;;;;27.66;65.99;99619.69;308500;31;3205;-78
2023/07/15 00:33:05;;;;;;;;;;;;;;;27.67;65.99;99621.38;307504;31;4593;-77
2023/07/15 00:33:15;;;;;;;;;;;;;;;27.68;65.46;99620.34;304452;32;2815;-78
2023/07/15 00:33:26;;;;;;;;;;;;;;;27.68;65.50;99614.97;303281;32;979;-78
2023/07/15 00:33:36;;;;;;;;;;;;;;;27.66;65.21;99622.38;299765;32;3760;-77
2023/07/15 00:33:49;;;;;;;;;;;;;;;27.66;65.62;99617.00;305362;31;4734;-78
2023/07/15 00:33:59;;;;;;;;;;;;;;;27.66;65.34;99617.00;305353;31;4760;-78
2023/07/15 00:34:09;;;;;;;;;;;;;;;27.63;65.28;99620.03;308276;32;1156;-78
2023/07/15 00:34:20;;;;;;;;;;;;;;;27.60;65.54;99617.69;304741;32;4436;-78
2023/07/15 00:34:30;;;;;;;;;;;;;;;27.56;65.56;99616.31;303842;32;4110;-78
2023/07/15 00:34:40;;;;;;;;;;;;;;;27.49;64.67;99622.38;304088;32;1364;-78
2023/07/15 00:34:50;;;;;;;;;;;;;;;27.45;64.95;99615.66;300424;32;2709;-78
2023/07/15 00:35:01;;;;;;;;;;;;;;;27.47;64.64;99615.47;298111;32;2579;-78
2023/07/15 00:35:21;;;;;;;;;;;;;;;27.46;64.89;99621.88;299033;33;1273;-78
2023/07/15 00:35:32;;;;;;;;;;;;;;;27.38;64.82;99622.72;296830;33;4888;-78
2023/07/15 00:35:42;;;;;;;;;;;;;;;27.36;64.86;99613.16;293540;33;5563;-78
2023/07/15 00:35:53;;;;;;;;;;;;;;;27.37;65.36;99620.19;293137;33;843;-78
2023/07/15 00:36:04;;;;;;;;;;;;;;;27.36;65.07;99619.34;293126;33;6202;-78
2023/07/15 00:36:14;;;;;;;;;;;;;;;27.37;65.32;99612.13;293314;33;7945;-78
2023/07/15 00:36:26;;;;;;;;;;;;;;;27.40;65.45;99611.78;293075;33;815;-78
2023/07/15 00:36:36;;;;;;;;;;;;;;;27.42;65.02;99620.53;291535;33;5146;-78
2023/07/15 00:36:47;;;;;;;;;;;;;;;27.44;65.09;99613.97;291912;33;5758;-77
2023/07/15 00:36:57;;;;;;;;;;;;;;;27.46;65.08;99616.50;290768;33;4170;-78
2023/07/15 00:37:07;;;;;;;;;;;;;;;27.48;64.98;99615.31;288216;34;1238;-78
2023/07/15 00:37:17;;;;;;;;;;;;;;;27.52;64.78;99614.97;285295;34;4495;-78
2023/07/15 00:37:28;;;;;;;;;;;;;;;27.56;65.11;99614.47;281690;34;5519;-78
2023/07/15 00:37:38;;;;;;;;;;;;;;;27.59;64.95;99619.53;284343;34;1302;-78
2023/07/15 00:37:49;;;;;;;;;;;;;;;27.64;64.44;99619.00;283911;34;6684;-78
2023/07/15 00:37:59;;;;;;;;;;;;;;;27.66;64.29;99617.00;283718;34;7399;-78
2023/07/15 00:38:10;;;;;;;;;;;;;;;27.70;64.30;99615.66;283599;34;1178;-78
2023/07/15 00:38:20;;;;;;;;;;;;;;;27.72;64.29;99613.63;280706;34;9494;-78
2023/07/15 00:38:31;;;;;;;;;;;;;;;27.74;63.68;99615.09;279751;35;10603;-77
2023/07/15 00:38:42;;;;;;;;;;;;;;;27.74;63.14;99614.25;280865;35;794;-77
2023/07/15 00:41:23;;;;;;;;;;;;;;;27.52;62.63;99623.88;2492032;27;19933;-78
2023/07/15 00:41:34;;;;;;;;;;;;;;;27.40;63.54;99614.47;351591;28;1261;-78
2023/07/15 00:41:44;;;;;;;;;;;;;;;27.40;63.16;99623.38;348667;28;1267;-78
2023/07/15 00:41:56;;;;;;;;;;;;;;;27.42;63.38;99620.53;348661;28;1405;-78
2023/07/15 00:42:09;;;;;;;;;;;;;;;27.42;63.09;99615.16;346743;28;3518;-78
2023/07/15 00:42:38;;;;;;;;;;;;;;;27.40;63.15;99611.78;346389;28;4769;-77
2023/07/15 00:42:48;;;;;;;;;;;;;;;27.36;63.38;99613.97;347255;28;1877;-78
2023/07/15 00:43:17;;;;;;;;;;;;;;;27.35;63.39;99609.63;347289;28;1335;-78
2023/07/15 00:43:46;;;;;;;;;;;;;;;27.37;63.56;99622.88;345013;28;1307;-78
2023/07/15 00:43:58;;;;;;;;;;;;;;;27.35;63.16;99619.53;341958;28;875;-78
2023/07/15 00:44:14;;;;;;;;;;;;;;;27.37;63.26;99620.19;344143;28;2630;-78
2023/07/15 00:44:24;;;;;;;;;;;;;;;27.41;63.22;99618.84;348565;28;1377;-77
2023/07/15 00:44:35;;;;;;;;;;;;;;;27.44;62.72;99619.34;348937;28;831;-77
2023/07/15 00:44:45;;;;;;;;;;;;;;;27.45;62.87;99618.34;347330;28;1172;-77
2023/07/15 00:44:55;;;;;;;;;;;;;;;27.45;62.78;99617.50;347960;28;936;-77
2023/07/15 00:45:06;;;;;;;;;;;;;;;27.43;62.86;99614.97;348582;28;1598;-77
2023/07/15 00:45:16;;;;;;;;;;;;;;;27.45;63.28;99621.03;349428;28;1299;-77
2023/07/15 00:45:26;;;;;;;;;;;;;;;27.46;63.22;99620.03;350434;28;1256;-78
2023/07/15 00:45:36;;;;;;;;;;;;;;;27.47;62.83;99620.84;351572;28;902;-77
2023/07/15 00:46:07;;;;;;;;;;;;;;;27.48;62.77;99619.84;350111;28;1304;-77
2023/07/15 00:46:17;;;;;;;;;;;;;;;27.52;62.62;99625.72;349184;28;1575;-75
2023/07/15 00:46:31;;;;;;;;;;;;;;;27.55;62.96;99628.06;350201;28;1281;-75
2023/07/15 00:46:41;;;;;;;;;;;;;;;27.54;62.63;99623.72;348424;28;1400;-76
2023/07/15 00:47:12;;;;;;;;;;;;;;;27.56;62.65;99619.00;347170;28;1291;-76
2023/07/15 00:47:27;;;;;;;;;;;;;;;27.60;62.70;99628.44;341988;28;1353;-77
2023/07/15 00:47:39;;;;;;;;;;;;;;;27.62;62.61;99623.72;339332;29;1339;-76
2023/07/15 00:48:00;;;;;;;;;;;;;;;27.64;62.68;99627.09;341990;28;840;-76
2023/07/15 00:48:16;;;;;;;;;;;;;;;27.56;62.19;99627.06;341988;28;1792;-76
2023/07/15 00:48:27;;;;;;;;;;;;;;;27.47;62.66;99623.53;341943;28;1140;-76
2023/07/15 00:48:37;;;;;;;;;;;;;;;27.43;62.88;99620.34;340536;29;1351;-76
2023/07/15 00:48:47;;;;;;;;;;;;;;;27.42;62.85;99631.28;341657;28;1332;-76
2023/07/15 00:49:03;;;;;;;;;;;;;;;27.39;62.68;99629.78;341010;28;1360;-77
2023/07/15 00:49:23;;;;;;;;;;;;;;;27.41;62.74;99619.69;343903;28;1230;-76
2023/07/15 00:49:34;;;;;;;;;;;;;;;27.43;62.25;99627.59;342048;28;750;-76
2023/07/15 00:49:44;;;;;;;;;;;;;;;27.38;62.48;99636.16;342029;28;1409;-76
2023/07/15 00:49:54;;;;;;;;;;;;;;;27.34;62.37;99626.75;341495;28;1288;-76
2023/07/15 00:50:05;;;;;;;;;;;;;;;27.34;62.45;99626.75;338112;29;719;-77
2023/07/15 00:50:16;;;;;;;;;;;;;;;27.34;62.15;99629.44;338909;29;1318;-77
2023/07/15 00:50:26;;;;;;;;;;;;;;;27.36;62.31;99626.59;337436;29;1191;-76
2023/07/15 00:50:41;;;;;;;;;;;;;;;27.37;62.16;99629.09;336794;29;1000;-76
2023/07/15 00:50:51;;;;;;;;;;;;;;;27.40;62.30;99630.63;340646;29;1290;-76
2023/07/15 00:51:02;;;;;;;;;;;;;;;27.38;62.11;99630.78;338830;29;1383;-76
2023/07/15 00:51:12;;;;;;;;;;;;;;;27.37;62.04;99630.94;337754;29;1480;-76
2023/07/15 00:51:22;;;;;;;;;;;;;;;27.36;62.37;99626.59;336849;29;885;-76
2023/07/15 00:51:33;;;;;;;;;;;;;;;27.38;62.16;99624.56;336510;29;1931;-76
2023/07/15 00:52:04;;;;;;;;;;;;;;;27.38;62.20;99625.41;334952;29;1449;-76
2023/07/15 00:52:16;;;;;;;;;;;;;;;27.41;62.22;99626.91;333373;29;1602;-76
2023/07/15 00:52:26;;;;;;;;;;;;;;;27.42;62.05;99626.75;334045;29;790;-76
2023/07/15 00:52:36;;;;;;;;;;;;;;;27.44;61.99;99626.56;330437;29;1232;-76
2023/07/15 00:52:46;;;;;;;;;;;;;;;27.46;61.63;99628.09;331406;29;1523;-76
2023/07/15 00:52:56;;;;;;;;;;;;;;;27.42;61.66;99636.66;331027;29;1742;-76
2023/07/15 00:53:07;;;;;;;;;;;;;;;27.38;62.19;99630.78;328794;30;1527;-76
2023/07/15 00:53:17;;;;;;;;;;;;;;;27.38;62.30;99629.94;329700;29;1821;-76
2023/07/15 00:53:27;;;;;;;;;;;;;;;27.34;62.09;99629.44;328646;29;2125;-76
2023/07/15 00:53:37;;;;;;;;;;;;;;;27.31;62.27;99624.41;326620;30;1065;-76
2023/07/15 00:53:48;;;;;;;;;;;;;;;27.30;62.33;99628.09;330537;29;2175;-76
2023/07/15 00:54:00;;;;;;;;;;;;;;;27.26;62.34;99625.94;327921;30;2160;-76
2023/07/15 00:54:10;;;;;;;;;;;;;;;27.26;62.55;99616.03;327491;29;2427;-75
2023/07/15 00:54:21;;;;;;;;;;;;;;;27.30;62.16;99627.25;330502;29;842;-75
2023/07/15 00:54:34;;;;;;;;;;;;;;;27.32;62.22;99625.25;333028;29;1802;-75
2023/07/15 00:54:45;;;;;;;;;;;;;;;27.32;62.32;99619.88;333592;29;1575;-75
2023/07/15 00:54:56;;;;;;;;;;;;;;;27.29;62.30;99620.22;334083;29;1983;-76
2023/07/15 00:55:06;;;;;;;;;;;;;;;27.26;62.65;99620.56;332882;29;1354;-76
2023/07/15 00:55:16;;;;;;;;;;;;;;;27.24;62.50;99623.44;331394;29;2485;-76
2023/07/15 00:55:27;;;;;;;;;;;;;;;27.24;62.45;99618.06;329139;29;2741;-76
2023/07/15 00:55:38;;;;;;;;;;;;;;;27.21;62.47;99626.44;327877;30;1601;-76
2023/07/15 00:55:48;;;;;;;;;;;;;;;27.20;62.80;99623.94;326282;29;2787;-76
2023/07/15 00:55:58;;;;;;;;;;;;;;;27.21;62.27;99622.94;324699;30;3406;-76
2023/07/15 00:56:09;;;;;;;;;;;;;;;27.24;62.16;99617.22;322299;30;3289;-76
2023/07/15 00:56:19;;;;;;;;;;;;;;;27.24;62.15;99618.06;321897;30;776;-76
2023/07/15 00:56:30;;;;;;;;;;;;;;;27.24;62.08;99620.75;322263;30;2732;-76
2023/07/15 00:56:40;;;;;;;;;;;;;;;27.26;62.21;99621.41;321947;30;2375;-76
2023/07/15 00:56:50;;;;;;;;;;;;;;;27.26;62.20;99621.41;318610;30;3362;-76
2023/07/15 00:57:01;;;;;;;;;;;;;;;27.27;62.31;99623.09;316153;30;4739;-76
2023/07/15 00:57:12;;;;;;;;;;;;;;;27.26;62.10;99626.78;316573;30;2997;-76
2023/07/15 00:57:22;;;;;;;;;;;;;;;27.25;62.25;99625.09;317167;31;1330;-76
2023/07/15 00:57:32;;;;;;;;;;;;;;;27.23;62.13;99621.75;318738;30;3722;-76
2023/07/15 00:57:42;;;;;;;;;;;;;;;27.22;62.40;99625.44;315763;30;3972;-76
2023/07/15 00:57:53;;;;;;;;;;;;;;;27.20;62.31;99618.56;314863;31;1206;-76
2023/07/15 00:58:03;;;;;;;;;;;;;;;27.20;62.19;99624.78;316313;31;4025;-76
2023/07/15 00:58:14;;;;;;;;;;;;;;;27.21;62.28;99623.75;314737;30;4586;-78
2023/07/15 00:58:25;;;;;;;;;;;;;;;27.22;62.24;99628.13;314555;31;3919;-77
2023/07/15 00:58:35;;;;;;;;;;;;;;;27.19;62.61;99623.09;315896;31;1236;-76
2023/07/15 00:58:45;;;;;;;;;;;;;;;27.18;62.32;99624.09;315488;30;4022;-76
2023/07/15 00:58:56;;;;;;;;;;;;;;;27.16;62.92;99623.44;314180;31;3239;-76
2023/07/15 00:59:07;;;;;;;;;;;;;;;27.13;62.84;99626.44;312795;31;799;-76
2023/07/15 00:59:17;;;;;;;;;;;;;;;27.14;62.61;99625.44;308742;31;2992;-76
2023/07/15 00:59:28;;;;;;;;;;;;;;;27.14;62.60;99628.97;309616;31;3799;-76
2023/07/15 00:59:39;;;;;;;;;;;;;;;27.15;62.21;99627.13;306979;32;2727;-76
2023/07/15 00:59:51;;;;;;;;;;;;;;;27.16;62.33;99615.38;298772;33;1213;-76
2023/07/15 01:00:04;;;;;;;;;;;;;;;27.17;62.60;99622.41;299099;32;5937;-76
2023/07/15 01:00:15;;;;;;;;;;;;;;;27.21;62.62;99629.13;300832;32;4898;-77
2023/07/15 01:00:26;;;;;;;;;;;;;;;27.24;62.20;99628.81;302390;32;5863;-77
2023/07/15 01:00:37;;;;;;;;;;;;;;;27.23;62.17;99628.97;298999;33;1658;-76
2023/07/15 01:00:48;;;;;;;;;;;;;;;27.25;62.54;99621.59;295020;33;5892;-77
2023/07/15 01:00:58;;;;;;;;;;;;;;;27.26;62.52;99621.41;293285;33;5089;-77
2023/07/15 01:01:10;;;;;;;;;;;;;;;27.28;62.22;99624.78;295834;33;898;-77
2023/07/15 01:01:21;;;;;;;;;;;;;;;27.33;62.33;99627.75;295905;33;841;-77
2023/07/15 01:01:31;;;;;;;;;;;;;;;27.34;61.97;99621.38;292262;33;4259;-77
2023/07/15 01:01:42;;;;;;;;;;;;;;;27.35;61.94;99619.53;290608;33;5732;-77
2023/07/15 01:01:53;;;;;;;;;;;;;;;27.32;61.51;99625.25;293797;33;1374;-77
2023/07/15 01:02:03;;;;;;;;;;;;;;;27.28;61.78;99623.94;292690;33;7852;-77
2023/07/15 01:02:14;;;;;;;;;;;;;;;27.27;61.83;99628.47;292507;33;9953;-77
2023/07/15 01:02:25;;;;;;;;;;;;;;;27.27;62.06;99628.47;290701;33;7821;-77
2023/07/15 01:02:37;;;;;;;;;;;;;;;27.26;61.63;99621.41;291938;33;1329;-77
2023/07/15 01:02:47;;;;;;;;;;;;;;;27.28;61.50;99624.78;290046;33;7857;-77
2023/07/15 01:02:57;;;;;;;;;;;;;;;27.30;61.91;99625.41;286555;34;8281;-77
2023/07/15 01:03:08;;;;;;;;;;;;;;;27.31;61.49;99624.41;286409;34;1609;-77
2023/07/15 01:05:02;;;;;;;;;;;;;;;27.44;61.45;99627.41;2501378;27;20664;-75
2023/07/15 01:05:12;;;;;;;;;;;;;;;27.40;61.56;99622.53;357384;27;874;-75
2023/07/15 01:05:22;;;;;;;;;;;;;;;27.35;61.33;99630.28;355759;27;1280;-75
2023/07/15 01:05:32;;;;;;;;;;;;;;;27.35;61.69;99627.59;352568;28;1534;-75
2023/07/15 01:05:43;;;;;;;;;;;;;;;27.37;61.77;99629.09;353114;28;838;-75
2023/07/15 01:05:53;;;;;;;;;;;;;;;27.38;61.44;99630.78;351534;28;957;-75
2023/07/15 01:06:03;;;;;;;;;;;;;;;27.38;61.56;99629.94;349362;28;3436;-75
2023/07/15 01:06:14;;;;;;;;;;;;;;;27.34;61.18;99628.59;346639;28;4655;-75
2023/07/15 01:06:24;;;;;;;;;;;;;;;27.33;61.67;99627.75;347113;28;2997;-75
2023/07/15 01:06:35;;;;;;;;;;;;;;;27.34;61.70;99633.97;347589;28;789;-75
2023/07/15 01:06:45;;;;;;;;;;;;;;;27.32;61.65;99620.72;349004;28;2897;-75
2023/07/15 01:06:55;;;;;;;;;;;;;;;27.27;61.53;99631.16;348297;28;847;-75
2023/07/15 01:07:06;;;;;;;;;;;;;;;27.23;61.31;99631.66;347327;28;852;-75
2023/07/15 01:07:16;;;;;;;;;;;;;;;27.17;61.57;99627.78;349812;28;1466;-75